sensor_id;sensor_type;location;lat;lon;timestamp;temperature;humidity
30288;DHT22;17103;48.316;11.558;2023-07-16T00:00:00;27.70;44.40
30288;DHT22;17103;48.316;11.558;2023-07-16T00:02:26;27.50;44.10
30288;DHT22;17103;48.316;11.558;2023-07-16T00:04:51;27.50;44.20
30288;DHT22;17103;48.316;11.558;2023-07-16T00:07:17;27.40;44.80
30288;DHT22;17103;48.316;11.558;2023-07-16T00:09:44;27.30;44.40
30288;DHT22;17103;48.316;11.558;2023-07-16T00:12:09;27.20;44.60
30288;DHT22;17103;48.316;11.558;2023-07-16T00:14:35;27.20;44.40
30288;DHT22;17103;48.316;11.558;2023-07-16T00:17:01;27.10;44.70
30288;DHT22;17103;48.316;11.558;2023-07-16T00:19:27;27.10;44.70
30288;DHT22;17103;48.316;11.558;2023-07-16T00:21:52;27.10;44.60
30288;DHT22;17103;48.316;11.558;2023-07-16T00:24:18;27.10;45.30
30288;DHT22;17103;48.316;11.558;2023-07-16T00:26:43;27.10;45.00
30288;DHT22;17103;48.316;11.558;2023-07-16T00:29:09;27.10;44.90
30288;DHT22;17103;48.316;11.558;2023-07-16T00:31:35;27.10;45.30
30288;DHT22;17103;48.316;11.558;2023-07-16T00:34:00;27.10;45.40
30288;DHT22;17103;48.316;11.558;2023-07-16T00:36:26;27.10;45.50
30288;DHT22;17103;48.316;11.558;2023-07-16T00:38:51;27.20;45.60
30288;DHT22;17103;48.316;11.558;2023-07-16T00:41:17;27.20;45.60
30288;DHT22;17103;48.316;11.558;2023-07-16T00:43:43;27.20;45.80
30288;DHT22;17103;48.316;11.558;2023-07-16T00:46:09;27.20;46.20
30288;DHT22;17103;48.316;11.558;2023-07-16T00:48:35;27.20;46.40
30288;DHT22;17103;48.316;11.558;2023-07-16T00:51:02;27.20;46.50
30288;DHT22;17103;48.316;11.558;2023-07-16T00:53:28;27.20;47.10
30288;DHT22;17103;48.316;11.558;2023-07-16T00:55:54;27.20;47.40
30288;DHT22;17103;48.316;11.558;2023-07-16T00:58:20;27.10;48.20
30288;DHT22;17103;48.316;11.558;2023-07-16T01:00:45;26.90;48.70
30288;DHT22;17103;48.316;11.558;2023-07-16T01:03:13;26.70;48.70
30288;DHT22;17103;48.316;11.558;2023-07-16T01:06:04;26.50;48.90
30288;DHT22;17103;48.316;11.558;2023-07-16T01:08:38;26.30;50.40
30288;DHT22;17103;48.316;11.558;2023-07-16T01:11:05;26.20;50.00
30288;DHT22;17103;48.316;11.558;2023-07-16T01:13:31;26.10;49.80
30288;DHT22;17103;48.316;11.558;2023-07-16T01:15:57;26.00;49.80
30288;DHT22;17103;48.316;11.558;2023-07-16T01:18:23;25.90;49.50
30288;DHT22;17103;48.316;11.558;2023-07-16T01:20:49;25.80;49.70
30288;DHT22;17103;48.316;11.558;2023-07-16T01:26:11;25.70;50.50
30288;DHT22;17103;48.316;11.558;2023-07-16T01:31:15;25.70;51.60
30288;DHT22;17103;48.316;11.558;2023-07-16T01:33:42;25.70;51.40
30288;DHT22;17103;48.316;11.558;2023-07-16T01:36:08;25.60;51.70
30288;DHT22;17103;48.316;11.558;2023-07-16T01:38:37;25.60;51.20
30288;DHT22;17103;48.316;11.558;2023-07-16T01:41:03;25.60;52.50
30288;DHT22;17103;48.316;11.558;2023-07-16T01:43:28;25.50;52.20
30288;DHT22;17103;48.316;11.558;2023-07-16T01:45:54;25.50;52.00
30288;DHT22;17103;48.316;11.558;2023-07-16T01:48:30;25.50;52.20
30288;DHT22;17103;48.316;11.558;2023-07-16T01:50:55;25.40;53.40
30288;DHT22;17103;48.316;11.558;2023-07-16T01:53:21;25.40;52.90
30288;DHT22;17103;48.316;11.558;2023-07-16T01:55:47;25.30;52.70
30288;DHT22;17103;48.316;11.558;2023-07-16T01:58:12;25.30;52.70
30288;DHT22;17103;48.316;11.558;2023-07-16T02:00:39;25.30;52.90
30288;DHT22;17103;48.316;11.558;2023-07-16T02:03:04;25.30;53.30
30288;DHT22;17103;48.316;11.558;2023-07-16T02:05:30;25.30;53.40
30288;DHT22;17103;48.316;11.558;2023-07-16T02:07:56;25.40;53.30
30288;DHT22;17103;48.316;11.558;2023-07-16T02:10:21;25.40;53.10
30288;DHT22;17103;48.316;11.558;2023-07-16T02:12:47;25.40;52.90
30288;DHT22;17103;48.316;11.558;2023-07-16T02:15:12;25.50;53.30
30288;DHT22;17103;48.316;11.558;2023-07-16T02:17:38;25.50;53.00
30288;DHT22;17103;48.316;11.558;2023-07-16T02:20:04;25.60;53.40
30288;DHT22;17103;48.316;11.558;2023-07-16T02:22:34;25.60;53.70
30288;DHT22;17103;48.316;11.558;2023-07-16T02:25:00;25.60;53.50
30288;DHT22;17103;48.316;11.558;2023-07-16T02:27:26;25.60;53.60
30288;DHT22;17103;48.316;11.558;2023-07-16T02:29:52;25.70;53.20
30288;DHT22;17103;48.316;11.558;2023-07-16T02:32:17;25.60;53.40
30288;DHT22;17103;48.316;11.558;2023-07-16T02:34:43;25.70;53.70
30288;DHT22;17103;48.316;11.558;2023-07-16T02:37:09;25.70;54.00
30288;DHT22;17103;48.316;11.558;2023-07-16T02:39:34;25.70;53.90
30288;DHT22;17103;48.316;11.558;2023-07-16T02:42:00;25.60;54.00
30288;DHT22;17103;48.316;11.558;2023-07-16T02:44:25;25.60;53.50
30288;DHT22;17103;48.316;11.558;2023-07-16T02:46:51;25.60;53.80
30288;DHT22;17103;48.316;11.558;2023-07-16T02:49:17;25.60;54.40
30288;DHT22;17103;48.316;11.558;2023-07-16T02:51:42;25.70;54.20
30288;DHT22;17103;48.316;11.558;2023-07-16T02:54:08;25.70;54.60
30288;DHT22;17103;48.316;11.558;2023-07-16T02:56:34;25.70;54.50
30288;DHT22;17103;48.316;11.558;2023-07-16T02:59:00;25.60;54.80
30288;DHT22;17103;48.316;11.558;2023-07-16T03:01:25;25.70;54.80
30288;DHT22;17103;48.316;11.558;2023-07-16T03:03:51;25.60;54.30
30288;DHT22;17103;48.316;11.558;2023-07-16T03:06:17;25.60;54.50
30288;DHT22;17103;48.316;11.558;2023-07-16T03:08:43;25.70;55.10
30288;DHT22;17103;48.316;11.558;2023-07-16T03:11:11;25.60;54.80
30288;DHT22;17103;48.316;11.558;2023-07-16T03:13:37;25.60;54.80
30288;DHT22;17103;48.316;11.558;2023-07-16T03:16:03;25.60;55.50
30288;DHT22;17103;48.316;11.558;2023-07-16T03:18:29;25.60;55.00
30288;DHT22;17103;48.316;11.558;2023-07-16T03:20:56;25.60;54.40
30288;DHT22;17103;48.316;11.558;2023-07-16T03:23:23;25.50;54.00
30288;DHT22;17103;48.316;11.558;2023-07-16T03:25:48;25.40;53.50
30288;DHT22;17103;48.316;11.558;2023-07-16T03:28:14;25.40;53.30
30288;DHT22;17103;48.316;11.558;2023-07-16T03:30:40;25.30;53.00
30288;DHT22;17103;48.316;11.558;2023-07-16T03:33:05;25.20;52.90
30288;DHT22;17103;48.316;11.558;2023-07-16T03:35:31;25.20;52.50
30288;DHT22;17103;48.316;11.558;2023-07-16T03:37:57;25.20;52.40
30288;DHT22;17103;48.316;11.558;2023-07-16T03:40:26;25.30;52.70
30288;DHT22;17103;48.316;11.558;2023-07-16T03:42:52;25.30;52.80
30288;DHT22;17103;48.316;11.558;2023-07-16T03:45:18;25.30;52.60
30288;DHT22;17103;48.316;11.558;2023-07-16T03:47:44;25.40;52.50
30288;DHT22;17103;48.316;11.558;2023-07-16T03:50:10;25.40;52.40
30288;DHT22;17103;48.316;11.558;2023-07-16T03:52:36;25.40;52.30
30288;DHT22;17103;48.316;11.558;2023-07-16T03:55:02;25.40;52.10
30288;DHT22;17103;48.316;11.558;2023-07-16T03:57:28;25.40;52.20
30288;DHT22;17103;48.316;11.558;2023-07-16T03:59:54;25.50;52.60
30288;DHT22;17103;48.316;11.558;2023-07-16T04:02:20;25.50;52.00
30288;DHT22;17103;48.316;11.558;2023-07-16T04:04:46;25.50;51.90
30288;DHT22;17103;48.316;11.558;2023-07-16T04:07:12;25.60;51.90
30288;DHT22;17103;48.316;11.558;2023-07-16T04:09:38;25.60;51.80
30288;DHT22;17103;48.316;11.558;2023-07-16T04:12:05;25.60;51.70
30288;DHT22;17103;48.316;11.558;2023-07-16T04:14:30;25.70;51.60
30288;DHT22;17103;48.316;11.558;2023-07-16T04:16:56;25.70;51.50
30288;DHT22;17103;48.316;11.558;2023-07-16T04:19:22;25.80;51.40
30288;DHT22;17103;48.316;11.558;2023-07-16T04:21:47;25.80;51.20
30288;DHT22;17103;48.316;11.558;2023-07-16T04:24:13;25.80;51.00
30288;DHT22;17103;48.316;11.558;2023-07-16T04:26:39;25.80;50.80
30288;DHT22;17103;48.316;11.558;2023-07-16T04:29:05;25.80;50.80
30288;DHT22;17103;48.316;11.558;2023-07-16T04:31:30;25.90;50.80
30288;DHT22;17103;48.316;11.558;2023-07-16T04:33:56;25.90;50.80
30288;DHT22;17103;48.316;11.558;2023-07-16T04:36:21;25.80;50.80
30288;DHT22;17103;48.316;11.558;2023-07-16T04:38:47;25.90;50.80
30288;DHT22;17103;48.316;11.558;2023-07-16T04:41:13;25.90;50.80
30288;DHT22;17103;48.316;11.558;2023-07-16T04:43:39;26.00;50.70
30288;DHT22;17103;48.316;11.558;2023-07-16T04:46:05;26.00;50.70
30288;DHT22;17103;48.316;11.558;2023-07-16T04:48:30;26.00;50.60
30288;DHT22;17103;48.316;11.558;2023-07-16T04:50:56;26.00;50.50
30288;DHT22;17103;48.316;11.558;2023-07-16T04:53:22;26.00;50.70
30288;DHT22;17103;48.316;11.558;2023-07-16T04:55:48;26.00;50.80
30288;DHT22;17103;48.316;11.558;2023-07-16T04:58:18;26.00;50.10
30288;DHT22;17103;48.316;11.558;2023-07-16T05:00:44;26.00;50.40
30288;DHT22;17103;48.316;11.558;2023-07-16T05:03:09;26.00;50.30
30288;DHT22;17103;48.316;11.558;2023-07-16T05:05:35;26.00;50.60
30288;DHT22;17103;48.316;11.558;2023-07-16T05:08:01;26.10;50.90
30288;DHT22;17103;48.316;11.558;2023-07-16T05:10:27;26.10;50.70
30288;DHT22;17103;48.316;11.558;2023-07-16T05:12:53;26.10;50.60
30288;DHT22;17103;48.316;11.558;2023-07-16T05:15:19;26.10;50.10
30288;DHT22;17103;48.316;11.558;2023-07-16T05:17:44;26.10;50.40
30288;DHT22;17103;48.316;11.558;2023-07-16T05:20:10;26.10;50.50
30288;DHT22;17103;48.316;11.558;2023-07-16T05:22:36;26.20;50.80
30288;DHT22;17103;48.316;11.558;2023-07-16T05:25:02;26.20;50.80
30288;DHT22;17103;48.316;11.558;2023-07-16T05:27:28;26.20;50.90
30288;DHT22;17103;48.316;11.558;2023-07-16T05:29:54;26.30;51.00
30288;DHT22;17103;48.316;11.558;2023-07-16T05:32:21;26.30;51.00
30288;DHT22;17103;48.316;11.558;2023-07-16T05:34:46;26.30;50.90
30288;DHT22;17103;48.316;11.558;2023-07-16T05:37:12;26.40;50.80
30288;DHT22;17103;48.316;11.558;2023-07-16T05:39:38;26.40;50.80
30288;DHT22;17103;48.316;11.558;2023-07-16T05:42:04;26.50;50.70
30288;DHT22;17103;48.316;11.558;2023-07-16T05:44:30;26.50;50.50
30288;DHT22;17103;48.316;11.558;2023-07-16T05:46:56;26.50;50.20
30288;DHT22;17103;48.316;11.558;2023-07-16T05:49:21;26.60;50.20
30288;DHT22;17103;48.316;11.558;2023-07-16T05:51:47;26.60;50.10
30288;DHT22;17103;48.316;11.558;2023-07-16T05:54:14;26.60;50.00
30288;DHT22;17103;48.316;11.558;2023-07-16T05:56:39;26.60;49.90
30288;DHT22;17103;48.316;11.558;2023-07-16T05:59:05;26.70;49.80
30288;DHT22;17103;48.316;11.558;2023-07-16T06:01:30;26.70;49.50
30288;DHT22;17103;48.316;11.558;2023-07-16T06:03:56;26.70;49.30
30288;DHT22;17103;48.316;11.558;2023-07-16T06:06:22;26.70;49.20
30288;DHT22;17103;48.316;11.558;2023-07-16T06:08:47;26.70;49.20
30288;DHT22;17103;48.316;11.558;2023-07-16T06:11:13;26.70;48.80
30288;DHT22;17103;48.316;11.558;2023-07-16T06:13:39;26.70;48.80
30288;DHT22;17103;48.316;11.558;2023-07-16T06:16:05;26.70;48.90
30288;DHT22;17103;48.316;11.558;2023-07-16T06:18:30;26.80;49.00
30288;DHT22;17103;48.316;11.558;2023-07-16T06:20:56;26.80;49.10
30288;DHT22;17103;48.316;11.558;2023-07-16T06:23:22;26.70;48.50
30288;DHT22;17103;48.316;11.558;2023-07-16T06:25:48;26.80;48.70
30288;DHT22;17103;48.316;11.558;2023-07-16T06:28:15;26.80;48.90
30288;DHT22;17103;48.316;11.558;2023-07-16T06:30:41;26.70;48.90
30288;DHT22;17103;48.316;11.558;2023-07-16T06:33:07;26.70;49.00
30288;DHT22;17103;48.316;11.558;2023-07-16T06:35:32;26.70;48.70
30288;DHT22;17103;48.316;11.558;2023-07-16T06:37:58;26.70;49.20
30288;DHT22;17103;48.316;11.558;2023-07-16T06:40:24;26.70;49.20
30288;DHT22;17103;48.316;11.558;2023-07-16T06:42:50;26.70;49.00
30288;DHT22;17103;48.316;11.558;2023-07-16T06:45:17;26.60;49.20
30288;DHT22;17103;48.316;11.558;2023-07-16T06:47:43;26.60;49.60
30288;DHT22;17103;48.316;11.558;2023-07-16T06:50:09;26.50;49.30
30288;DHT22;17103;48.316;11.558;2023-07-16T06:52:35;26.50;49.70
30288;DHT22;17103;48.316;11.558;2023-07-16T06:55:00;26.50;49.70
30288;DHT22;17103;48.316;11.558;2023-07-16T06:57:26;26.50;50.10
30288;DHT22;17103;48.316;11.558;2023-07-16T06:59:52;26.40;50.40
30288;DHT22;17103;48.316;11.558;2023-07-16T07:02:18;26.40;50.60
30288;DHT22;17103;48.316;11.558;2023-07-16T07:04:44;26.40;50.50
30288;DHT22;17103;48.316;11.558;2023-07-16T07:07:09;26.40;50.70
30288;DHT22;17103;48.316;11.558;2023-07-16T07:09:35;26.40;51.10
30288;DHT22;17103;48.316;11.558;2023-07-16T07:12:01;26.40;51.40
30288;DHT22;17103;48.316;11.558;2023-07-16T07:14:27;26.40;51.40
30288;DHT22;17103;48.316;11.558;2023-07-16T07:16:52;26.40;51.40
30288;DHT22;17103;48.316;11.558;2023-07-16T07:19:18;26.40;51.50
30288;DHT22;17103;48.316;11.558;2023-07-16T07:21:44;26.40;51.50
30288;DHT22;17103;48.316;11.558;2023-07-16T07:24:09;26.50;51.70
30288;DHT22;17103;48.316;11.558;2023-07-16T07:26:35;26.50;52.00
30288;DHT22;17103;48.316;11.558;2023-07-16T07:29:01;26.40;51.80
30288;DHT22;17103;48.316;11.558;2023-07-16T07:31:26;26.50;51.40
30288;DHT22;17103;48.316;11.558;2023-07-16T07:33:52;26.50;51.50
30288;DHT22;17103;48.316;11.558;2023-07-16T07:36:19;26.50;51.50
30288;DHT22;17103;48.316;11.558;2023-07-16T07:38:45;26.50;50.90
30288;DHT22;17103;48.316;11.558;2023-07-16T07:41:11;26.50;51.60
30288;DHT22;17103;48.316;11.558;2023-07-16T07:43:36;26.50;51.20
30288;DHT22;17103;48.316;11.558;2023-07-16T07:46:02;26.50;51.20
30288;DHT22;17103;48.316;11.558;2023-07-16T07:48:28;26.50;51.30
30288;DHT22;17103;48.316;11.558;2023-07-16T07:50:53;26.50;51.20
30288;DHT22;17103;48.316;11.558;2023-07-16T07:53:19;26.50;51.20
30288;DHT22;17103;48.316;11.558;2023-07-16T07:55:45;26.50;51.20
30288;DHT22;17103;48.316;11.558;2023-07-16T07:58:11;26.50;51.50
30288;DHT22;17103;48.316;11.558;2023-07-16T08:00:38;26.50;51.20
30288;DHT22;17103;48.316;11.558;2023-07-16T08:03:04;26.50;50.90
30288;DHT22;17103;48.316;11.558;2023-07-16T08:05:29;26.40;51.10
30288;DHT22;17103;48.316;11.558;2023-07-16T08:07:55;26.40;51.50
30288;DHT22;17103;48.316;11.558;2023-07-16T08:10:22;26.40;51.00
30288;DHT22;17103;48.316;11.558;2023-07-16T08:12:48;26.40;51.10
30288;DHT22;17103;48.316;11.558;2023-07-16T08:15:14;26.40;51.00
30288;DHT22;17103;48.316;11.558;2023-07-16T08:17:41;26.40;51.10
30288;DHT22;17103;48.316;11.558;2023-07-16T08:20:09;26.40;50.90
30288;DHT22;17103;48.316;11.558;2023-07-16T08:22:35;26.30;50.90
30288;DHT22;17103;48.316;11.558;2023-07-16T08:25:01;26.30;50.70
30288;DHT22;17103;48.316;11.558;2023-07-16T08:27:27;26.30;50.70
30288;DHT22;17103;48.316;11.558;2023-07-16T08:29:53;26.30;50.70
30288;DHT22;17103;48.316;11.558;2023-07-16T08:32:19;26.30;50.70
30288;DHT22;17103;48.316;11.558;2023-07-16T08:34:45;26.30;50.50
30288;DHT22;17103;48.316;11.558;2023-07-16T08:37:11;26.30;50.60
30288;DHT22;17103;48.316;11.558;2023-07-16T08:39:36;26.40;50.70
30288;DHT22;17103;48.316;11.558;2023-07-16T08:42:02;26.40;50.70
30288;DHT22;17103;48.316;11.558;2023-07-16T08:44:29;26.40;50.90
30288;DHT22;17103;48.316;11.558;2023-07-16T08:46:56;26.50;51.10
30288;DHT22;17103;48.316;11.558;2023-07-16T08:49:22;26.40;51.10
30288;DHT22;17103;48.316;11.558;2023-07-16T08:51:48;26.40;50.80
30288;DHT22;17103;48.316;11.558;2023-07-16T08:54:15;26.40;50.40
30288;DHT22;17103;48.316;11.558;2023-07-16T08:56:46;26.50;50.10
30288;DHT22;17103;48.316;11.558;2023-07-16T08:59:14;26.50;49.60
30288;DHT22;17103;48.316;11.558;2023-07-16T09:01:40;26.40;50.10
30288;DHT22;17103;48.316;11.558;2023-07-16T09:04:06;26.60;50.00
30288;DHT22;17103;48.316;11.558;2023-07-16T09:06:32;26.60;49.30
30288;DHT22;17103;48.316;11.558;2023-07-16T09:08:58;26.60;48.90
30288;DHT22;17103;48.316;11.558;2023-07-16T09:11:23;26.70;49.30
30288;DHT22;17103;48.316;11.558;2023-07-16T09:13:49;26.80;48.80
30288;DHT22;17103;48.316;11.558;2023-07-16T09:16:18;26.90;48.70
30288;DHT22;17103;48.316;11.558;2023-07-16T09:18:44;27.00;48.40
30288;DHT22;17103;48.316;11.558;2023-07-16T09:21:10;27.00;48.40
30288;DHT22;17103;48.316;11.558;2023-07-16T09:23:36;27.10;48.00
30288;DHT22;17103;48.316;11.558;2023-07-16T09:26:02;27.10;48.20
30288;DHT22;17103;48.316;11.558;2023-07-16T09:28:30;27.10;48.30
30288;DHT22;17103;48.316;11.558;2023-07-16T09:31:03;27.10;48.40
30288;DHT22;17103;48.316;11.558;2023-07-16T09:33:31;27.10;47.80
30288;DHT22;17103;48.316;11.558;2023-07-16T09:35:57;27.10;48.30
30288;DHT22;17103;48.316;11.558;2023-07-16T09:38:23;27.20;48.30
30288;DHT22;17103;48.316;11.558;2023-07-16T09:40:51;27.20;48.20
30288;DHT22;17103;48.316;11.558;2023-07-16T09:43:17;27.30;47.80
30288;DHT22;17103;48.316;11.558;2023-07-16T09:45:43;27.40;47.80
30288;DHT22;17103;48.316;11.558;2023-07-16T09:48:09;27.50;47.90
30288;DHT22;17103;48.316;11.558;2023-07-16T09:50:36;27.50;48.00
30288;DHT22;17103;48.316;11.558;2023-07-16T09:53:04;27.50;47.90
30288;DHT22;17103;48.316;11.558;2023-07-16T09:55:32;27.60;47.80
30288;DHT22;17103;48.316;11.558;2023-07-16T09:58:03;27.60;47.90
30288;DHT22;17103;48.316;11.558;2023-07-16T10:00:32;27.70;47.90
30288;DHT22;17103;48.316;11.558;2023-07-16T10:02:59;27.70;47.20
30288;DHT22;17103;48.316;11.558;2023-07-16T10:05:26;27.70;46.90
30288;DHT22;17103;48.316;11.558;2023-07-16T10:07:57;27.80;47.00
30288;DHT22;17103;48.316;11.558;2023-07-16T10:10:26;27.80;46.60
30288;DHT22;17103;48.316;11.558;2023-07-16T10:12:58;27.80;46.40
30288;DHT22;17103;48.316;11.558;2023-07-16T10:15:27;27.90;46.60
30288;DHT22;17103;48.316;11.558;2023-07-16T10:17:53;28.00;46.70
30288;DHT22;17103;48.316;11.558;2023-07-16T10:20:32;28.00;46.60
30288;DHT22;17103;48.316;11.558;2023-07-16T10:22:58;28.00;46.40
30288;DHT22;17103;48.316;11.558;2023-07-16T10:25:26;28.10;46.30
30288;DHT22;17103;48.316;11.558;2023-07-16T10:27:53;28.20;46.50
30288;DHT22;17103;48.316;11.558;2023-07-16T10:30:19;28.30;46.70
30288;DHT22;17103;48.316;11.558;2023-07-16T10:32:46;28.40;46.50
30288;DHT22;17103;48.316;11.558;2023-07-16T10:35:13;28.40;46.30
30288;DHT22;17103;48.316;11.558;2023-07-16T10:37:40;28.50;45.80
30288;DHT22;17103;48.316;11.558;2023-07-16T10:40:11;28.50;45.60
30288;DHT22;17103;48.316;11.558;2023-07-16T10:42:43;28.50;45.40
30288;DHT22;17103;48.316;11.558;2023-07-16T10:45:12;28.60;45.70
30288;DHT22;17103;48.316;11.558;2023-07-16T10:47:52;28.60;45.80
30288;DHT22;17103;48.316;11.558;2023-07-16T10:50:19;28.50;45.60
30288;DHT22;17103;48.316;11.558;2023-07-16T10:52:54;28.50;46.10
30288;DHT22;17103;48.316;11.558;2023-07-16T10:55:20;28.50;46.20
30288;DHT22;17103;48.316;11.558;2023-07-16T10:57:50;28.50;46.30
30288;DHT22;17103;48.316;11.558;2023-07-16T11:00:17;28.50;46.40
30288;DHT22;17103;48.316;11.558;2023-07-16T11:02:43;28.50;45.50
30288;DHT22;17103;48.316;11.558;2023-07-16T11:05:10;28.60;45.40
30288;DHT22;17103;48.316;11.558;2023-07-16T11:07:37;28.50;45.40
30288;DHT22;17103;48.316;11.558;2023-07-16T11:10:03;28.60;45.50
30288;DHT22;17103;48.316;11.558;2023-07-16T11:12:29;28.60;44.70
30288;DHT22;17103;48.316;11.558;2023-07-16T11:14:56;28.50;44.50
30288;DHT22;17103;48.316;11.558;2023-07-16T11:17:23;28.60;44.90
30288;DHT22;17103;48.316;11.558;2023-07-16T11:19:51;28.60;44.90
30288;DHT22;17103;48.316;11.558;2023-07-16T11:22:17;28.60;44.70
30288;DHT22;17103;48.316;11.558;2023-07-16T11:24:49;28.60;45.10
30288;DHT22;17103;48.316;11.558;2023-07-16T11:27:42;28.60;45.10
30288;DHT22;17103;48.316;11.558;2023-07-16T11:30:08;28.60;44.70
30288;DHT22;17103;48.316;11.558;2023-07-16T11:32:46;28.60;44.70
30288;DHT22;17103;48.316;11.558;2023-07-16T11:35:18;28.60;44.40
30288;DHT22;17103;48.316;11.558;2023-07-16T11:37:46;28.60;44.50
30288;DHT22;17103;48.316;11.558;2023-07-16T11:40:19;28.60;44.60
30288;DHT22;17103;48.316;11.558;2023-07-16T11:42:46;28.80;44.80
30288;DHT22;17103;48.316;11.558;2023-07-16T11:45:20;28.70;44.70
30288;DHT22;17103;48.316;11.558;2023-07-16T11:47:49;28.60;44.00
30288;DHT22;17103;48.316;11.558;2023-07-16T11:50:15;28.80;44.40
30288;DHT22;17103;48.316;11.558;2023-07-16T11:52:42;28.90;44.80
30288;DHT22;17103;48.316;11.558;2023-07-16T11:55:08;28.90;44.80
30288;DHT22;17103;48.316;11.558;2023-07-16T11:57:35;29.00;44.90
30288;DHT22;17103;48.316;11.558;2023-07-16T12:00:02;29.10;44.60
30288;DHT22;17103;48.316;11.558;2023-07-16T12:02:29;29.20;44.50
30288;DHT22;17103;48.316;11.558;2023-07-16T12:04:55;29.30;45.20
30288;DHT22;17103;48.316;11.558;2023-07-16T12:10:41;29.40;45.50
30288;DHT22;17103;48.316;11.558;2023-07-16T12:13:07;29.50;45.50
30288;DHT22;17103;48.316;11.558;2023-07-16T12:15:33;29.60;45.40
30288;DHT22;17103;48.316;11.558;2023-07-16T12:17:59;29.70;45.30
30288;DHT22;17103;48.316;11.558;2023-07-16T12:20:25;29.70;45.00
30288;DHT22;17103;48.316;11.558;2023-07-16T12:22:51;29.80;45.30
30288;DHT22;17103;48.316;11.558;2023-07-16T12:25:18;29.90;45.40
30288;DHT22;17103;48.316;11.558;2023-07-16T12:27:44;30.00;45.30
30288;DHT22;17103;48.316;11.558;2023-07-16T12:30:10;30.10;45.20
30288;DHT22;17103;48.316;11.558;2023-07-16T12:32:36;30.20;45.10
30288;DHT22;17103;48.316;11.558;2023-07-16T12:35:02;30.20;44.90
30288;DHT22;17103;48.316;11.558;2023-07-16T12:37:30;30.20;44.10
30288;DHT22;17103;48.316;11.558;2023-07-16T12:39:55;30.30;44.40
30288;DHT22;17103;48.316;11.558;2023-07-16T12:42:21;30.30;44.30
30288;DHT22;17103;48.316;11.558;2023-07-16T12:44:47;30.30;44.20
30288;DHT22;17103;48.316;11.558;2023-07-16T12:47:15;30.30;44.20
30288;DHT22;17103;48.316;11.558;2023-07-16T12:49:40;30.30;44.40
30288;DHT22;17103;48.316;11.558;2023-07-16T12:52:07;30.30;44.50
30288;DHT22;17103;48.316;11.558;2023-07-16T12:54:33;30.30;44.70
30288;DHT22;17103;48.316;11.558;2023-07-16T12:56:58;30.30;44.60
30288;DHT22;17103;48.316;11.558;2023-07-16T12:59:24;30.30;44.30
30288;DHT22;17103;48.316;11.558;2023-07-16T13:01:51;30.40;44.30
30288;DHT22;17103;48.316;11.558;2023-07-16T13:04:16;30.30;44.10
30288;DHT22;17103;48.316;11.558;2023-07-16T13:06:42;30.30;44.10
30288;DHT22;17103;48.316;11.558;2023-07-16T13:09:10;30.40;44.40
30288;DHT22;17103;48.316;11.558;2023-07-16T13:11:36;30.40;44.70
30288;DHT22;17103;48.316;11.558;2023-07-16T13:14:02;30.50;44.70
30288;DHT22;17103;48.316;11.558;2023-07-16T13:16:28;30.50;44.50
30288;DHT22;17103;48.316;11.558;2023-07-16T13:18:54;30.60;44.30
30288;DHT22;17103;48.316;11.558;2023-07-16T13:21:20;30.60;44.10
30288;DHT22;17103;48.316;11.558;2023-07-16T13:23:45;30.70;44.00
30288;DHT22;17103;48.316;11.558;2023-07-16T13:26:11;30.70;44.30
30288;DHT22;17103;48.316;11.558;2023-07-16T13:28:37;30.70;44.30
30288;DHT22;17103;48.316;11.558;2023-07-16T13:31:03;30.80;44.50
30288;DHT22;17103;48.316;11.558;2023-07-16T13:33:29;30.80;44.10
30288;DHT22;17103;48.316;11.558;2023-07-16T13:35:55;31.00;44.20
30288;DHT22;17103;48.316;11.558;2023-07-16T13:38:22;31.00;44.00
30288;DHT22;17103;48.316;11.558;2023-07-16T13:40:48;31.10;43.90
30288;DHT22;17103;48.316;11.558;2023-07-16T13:43:14;31.10;43.60
30288;DHT22;17103;48.316;11.558;2023-07-16T13:45:40;31.20;43.60
30288;DHT22;17103;48.316;11.558;2023-07-16T13:48:06;31.30;43.50
30288;DHT22;17103;48.316;11.558;2023-07-16T13:50:31;31.30;42.70
30288;DHT22;17103;48.316;11.558;2023-07-16T13:52:57;31.30;42.50
30288;DHT22;17103;48.316;11.558;2023-07-16T13:55:27;31.30;42.70
30288;DHT22;17103;48.316;11.558;2023-07-16T13:57:53;31.30;42.70
30288;DHT22;17103;48.316;11.558;2023-07-16T14:00:21;31.30;42.80
30288;DHT22;17103;48.316;11.558;2023-07-16T14:02:47;31.30;42.80
30288;DHT22;17103;48.316;11.558;2023-07-16T14:05:12;31.30;42.80
30288;DHT22;17103;48.316;11.558;2023-07-16T14:07:38;31.30;43.40
30288;DHT22;17103;48.316;11.558;2023-07-16T14:10:04;31.30;42.80
30288;DHT22;17103;48.316;11.558;2023-07-16T14:12:30;31.30;42.70
30288;DHT22;17103;48.316;11.558;2023-07-16T14:14:56;31.40;42.70
30288;DHT22;17103;48.316;11.558;2023-07-16T14:17:21;31.40;42.70
30288;DHT22;17103;48.316;11.558;2023-07-16T14:19:48;31.40;42.70
30288;DHT22;17103;48.316;11.558;2023-07-16T14:22:14;31.40;42.60
30288;DHT22;17103;48.316;11.558;2023-07-16T14:24:41;31.40;42.80
30288;DHT22;17103;48.316;11.558;2023-07-16T14:27:07;31.40;42.30
30288;DHT22;17103;48.316;11.558;2023-07-16T14:29:38;31.40;42.50
30288;DHT22;17103;48.316;11.558;2023-07-16T14:32:04;31.40;42.30
30288;DHT22;17103;48.316;11.558;2023-07-16T14:34:30;31.30;42.20
30288;DHT22;17103;48.316;11.558;2023-07-16T14:36:55;31.30;42.10
30288;DHT22;17103;48.316;11.558;2023-07-16T14:39:21;31.20;42.00
30288;DHT22;17103;48.316;11.558;2023-07-16T14:41:47;31.20;41.80
30288;DHT22;17103;48.316;11.558;2023-07-16T14:44:12;31.30;42.00
30288;DHT22;17103;48.316;11.558;2023-07-16T14:46:38;31.20;41.70
30288;DHT22;17103;48.316;11.558;2023-07-16T14:49:04;31.00;41.50
30288;DHT22;17103;48.316;11.558;2023-07-16T14:51:29;31.10;42.00
30288;DHT22;17103;48.316;11.558;2023-07-16T14:53:56;31.10;42.30
30288;DHT22;17103;48.316;11.558;2023-07-16T14:56:22;31.10;42.30
30288;DHT22;17103;48.316;11.558;2023-07-16T14:58:47;31.10;42.10
30288;DHT22;17103;48.316;11.558;2023-07-16T15:01:13;31.00;41.80
30288;DHT22;17103;48.316;11.558;2023-07-16T15:03:45;31.00;42.00
30288;DHT22;17103;48.316;11.558;2023-07-16T15:06:11;31.00;41.80
30288;DHT22;17103;48.316;11.558;2023-07-16T15:08:37;31.10;42.20
30288;DHT22;17103;48.316;11.558;2023-07-16T15:11:02;31.10;42.00
30288;DHT22;17103;48.316;11.558;2023-07-16T15:13:28;31.10;41.70
30288;DHT22;17103;48.316;11.558;2023-07-16T15:15:54;31.20;42.00
30288;DHT22;17103;48.316;11.558;2023-07-16T15:18:20;31.30;41.70